sensor_id;sensor_type;location;lat;lon;timestamp;P1;durP1;ratioP1;P2;durP2;ratioP2
75009;SDS011;63564;46.840;18.336;2023-05-07T00:00:06;21.40;;;9.82;;
75009;SDS011;63564;46.840;18.336;2023-05-07T00:03:08;17.35;;;10.13;;
75009;SDS011;63564;46.840;18.336;2023-05-07T00:06:08;19.93;;;10.30;;
75009;SDS011;63564;46.840;18.336;2023-05-07T00:09:08;20.17;;;10.27;;
75009;SDS011;63564;46.840;18.336;2023-05-07T00:12:09;18.20;;;9.10;;
75009;SDS011;63564;46.840;18.336;2023-05-07T00:15:10;18.53;;;9.40;;
75009;SDS011;63564;46.840;18.336;2023-05-07T00:18:10;17.15;;;9.45;;
75009;SDS011;63564;46.840;18.336;2023-05-07T00:21:11;15.77;;;8.93;;
75009;SDS011;63564;46.840;18.336;2023-05-07T00:24:11;18.13;;;9.13;;
75009;SDS011;63564;46.840;18.336;2023-05-07T00:27:12;17.93;;;9.50;;
75009;SDS011;63564;46.840;18.336;2023-05-07T00:30:12;18.65;;;9.60;;
75009;SDS011;63564;46.840;18.336;2023-05-07T00:33:13;15.93;;;8.48;;
75009;SDS011;63564;46.840;18.336;2023-05-07T00:36:13;16.50;;;8.77;;
75009;SDS011;63564;46.840;18.336;2023-05-07T00:39:13;19.30;;;9.57;;
75009;SDS011;63564;46.840;18.336;2023-05-07T00:42:14;17.43;;;8.87;;
75009;SDS011;63564;46.840;18.336;2023-05-07T00:45:16;16.00;;;8.52;;
75009;SDS011;63564;46.840;18.336;2023-05-07T00:48:17;15.90;;;8.55;;
75009;SDS011;63564;46.840;18.336;2023-05-07T00:51:17;19.00;;;9.63;;
75009;SDS011;63564;46.840;18.336;2023-05-07T00:54:18;20.63;;;9.80;;
75009;SDS011;63564;46.840;18.336;2023-05-07T00:57:19;20.33;;;10.30;;
75009;SDS011;63564;46.840;18.336;2023-05-07T01:00:21;18.33;;;10.38;;
75009;SDS011;63564;46.840;18.336;2023-05-07T01:03:22;17.77;;;9.70;;
75009;SDS011;63564;46.840;18.336;2023-05-07T01:06:23;20.65;;;9.40;;
75009;SDS011;63564;46.840;18.336;2023-05-07T01:09:25;17.93;;;8.80;;
75009;SDS011;63564;46.840;18.336;2023-05-07T01:12:27;17.70;;;8.50;;
75009;SDS011;63564;46.840;18.336;2023-05-07T01:15:28;16.25;;;8.50;;
75009;SDS011;63564;46.840;18.336;2023-05-07T01:18:29;16.67;;;8.30;;
75009;SDS011;63564;46.840;18.336;2023-05-07T01:21:31;16.73;;;8.55;;
75009;SDS011;63564;46.840;18.336;2023-05-07T01:24:33;15.63;;;7.95;;
75009;SDS011;63564;46.840;18.336;2023-05-07T01:27:35;13.87;;;7.67;;
75009;SDS011;63564;46.840;18.336;2023-05-07T01:30:44;14.68;;;8.00;;
75009;SDS011;63564;46.840;18.336;2023-05-07T01:33:47;15.77;;;7.75;;
75009;SDS011;63564;46.840;18.336;2023-05-07T01:36:49;14.98;;;7.47;;
75009;SDS011;63564;46.840;18.336;2023-05-07T01:39:51;13.57;;;7.20;;
75009;SDS011;63564;46.840;18.336;2023-05-07T01:42:52;13.87;;;7.40;;
75009;SDS011;63564;46.840;18.336;2023-05-07T01:45:54;16.00;;;7.68;;
75009;SDS011;63564;46.840;18.336;2023-05-07T01:48:55;13.77;;;7.53;;
75009;SDS011;63564;46.840;18.336;2023-05-07T01:51:55;13.87;;;7.37;;
75009;SDS011;63564;46.840;18.336;2023-05-07T01:54:56;14.80;;;7.37;;
75009;SDS011;63564;46.840;18.336;2023-05-07T01:57:57;14.02;;;7.32;;
75009;SDS011;63564;46.840;18.336;2023-05-07T02:00:57;14.37;;;6.93;;
75009;SDS011;63564;46.840;18.336;2023-05-07T02:03:57;13.30;;;6.80;;
75009;SDS011;63564;46.840;18.336;2023-05-07T02:06:58;12.53;;;6.00;;
75009;SDS011;63564;46.840;18.336;2023-05-07T02:09:58;11.43;;;6.23;;
75009;SDS011;63564;46.840;18.336;2023-05-07T02:12:58;12.00;;;5.97;;
75009;SDS011;63564;46.840;18.336;2023-05-07T02:16:01;10.95;;;5.82;;
75009;SDS011;63564;46.840;18.336;2023-05-07T02:19:02;10.95;;;5.60;;
75009;SDS011;63564;46.840;18.336;2023-05-07T02:22:03;10.33;;;5.43;;
75009;SDS011;63564;46.840;18.336;2023-05-07T02:25:03;13.37;;;6.03;;
75009;SDS011;63564;46.840;18.336;2023-05-07T02:28:04;12.53;;;6.63;;
75009;SDS011;63564;46.840;18.336;2023-05-07T02:31:04;11.95;;;5.90;;
75009;SDS011;63564;46.840;18.336;2023-05-07T02:34:05;12.87;;;6.63;;
75009;SDS011;63564;46.840;18.336;2023-05-07T02:37:05;11.77;;;6.37;;
75009;SDS011;63564;46.840;18.336;2023-05-07T02:40:06;14.40;;;6.40;;
75009;SDS011;63564;46.840;18.336;2023-05-07T02:43:06;12.43;;;6.35;;
75009;SDS011;63564;46.840;18.336;2023-05-07T02:46:08;12.93;;;6.70;;
75009;SDS011;63564;46.840;18.336;2023-05-07T02:49:09;14.05;;;6.90;;
75009;SDS011;63564;46.840;18.336;2023-05-07T02:52:10;16.27;;;7.47;;
75009;SDS011;63564;46.840;18.336;2023-05-07T02:55:10;14.57;;;7.23;;
75009;SDS011;63564;46.840;18.336;2023-05-07T02:58:11;13.63;;;6.60;;
75009;SDS011;63564;46.840;18.336;2023-05-07T03:01:11;15.57;;;7.03;;
75009;SDS011;63564;46.840;18.336;2023-05-07T03:04:13;15.00;;;7.27;;
75009;SDS011;63564;46.840;18.336;2023-05-07T03:07:14;15.52;;;7.20;;
75009;SDS011;63564;46.840;18.336;2023-05-07T03:10:14;14.38;;;7.28;;
75009;SDS011;63564;46.840;18.336;2023-05-07T03:13:15;14.03;;;7.07;;
75009;SDS011;63564;46.840;18.336;2023-05-07T03:16:15;15.60;;;7.17;;
75009;SDS011;63564;46.840;18.336;2023-05-07T03:19:15;14.73;;;7.13;;
75009;SDS011;63564;46.840;18.336;2023-05-07T03:22:16;13.85;;;7.15;;
75009;SDS011;63564;46.840;18.336;2023-05-07T03:25:16;14.53;;;7.00;;
75009;SDS011;63564;46.840;18.336;2023-05-07T03:28:17;14.73;;;7.90;;
75009;SDS011;63564;46.840;18.336;2023-05-07T03:31:17;15.17;;;7.33;;
75009;SDS011;63564;46.840;18.336;2023-05-07T03:34:18;13.10;;;6.82;;
75009;SDS011;63564;46.840;18.336;2023-05-07T03:37:22;13.80;;;6.78;;
75009;SDS011;63564;46.840;18.336;2023-05-07T03:40:22;14.85;;;6.82;;
75009;SDS011;63564;46.840;18.336;2023-05-07T03:43:22;13.63;;;6.95;;
75009;SDS011;63564;46.840;18.336;2023-05-07T03:46:23;15.50;;;7.17;;
75009;SDS011;63564;46.840;18.336;2023-05-07T03:49:26;14.93;;;7.25;;
75009;SDS011;63564;46.840;18.336;2023-05-07T03:52:27;13.67;;;6.97;;
75009;SDS011;63564;46.840;18.336;2023-05-07T03:55:28;14.63;;;7.03;;
75009;SDS011;63564;46.840;18.336;2023-05-07T03:58:29;14.97;;;7.07;;
75009;SDS011;63564;46.840;18.336;2023-05-07T04:01:29;13.98;;;6.60;;
75009;SDS011;63564;46.840;18.336;2023-05-07T04:04:30;16.30;;;6.90;;
75009;SDS011;63564;46.840;18.336;2023-05-07T04:07:32;13.30;;;6.40;;
75009;SDS011;63564;46.840;18.336;2023-05-07T04:10:33;15.52;;;7.00;;
75009;SDS011;63564;46.840;18.336;2023-05-07T04:13:33;13.17;;;6.83;;
75009;SDS011;63564;46.840;18.336;2023-05-07T04:16:34;14.60;;;6.53;;
75009;SDS011;63564;46.840;18.336;2023-05-07T04:19:35;13.63;;;6.45;;
75009;SDS011;63564;46.840;18.336;2023-05-07T04:22:35;12.00;;;6.00;;
75009;SDS011;63564;46.840;18.336;2023-05-07T04:25:36;11.53;;;6.17;;
75009;SDS011;63564;46.840;18.336;2023-05-07T04:28:38;12.05;;;6.45;;
75009;SDS011;63564;46.840;18.336;2023-05-07T04:31:39;14.33;;;7.00;;
75009;SDS011;63564;46.840;18.336;2023-05-07T04:34:39;11.75;;;6.20;;
75009;SDS011;63564;46.840;18.336;2023-05-07T04:37:40;13.23;;;6.70;;
75009;SDS011;63564;46.840;18.336;2023-05-07T04:40:40;12.27;;;6.33;;
75009;SDS011;63564;46.840;18.336;2023-05-07T04:43:41;12.70;;;6.10;;
75009;SDS011;63564;46.840;18.336;2023-05-07T04:46:41;10.95;;;5.30;;
75009;SDS011;63564;46.840;18.336;2023-05-07T04:49:42;10.73;;;5.33;;
75009;SDS011;63564;46.840;18.336;2023-05-07T04:52:42;13.53;;;5.70;;
75009;SDS011;63564;46.840;18.336;2023-05-07T04:55:43;10.87;;;5.57;;
75009;SDS011;63564;46.840;18.336;2023-05-07T04:58:44;10.75;;;5.57;;
75009;SDS011;63564;46.840;18.336;2023-05-07T05:01:45;10.90;;;5.57;;
75009;SDS011;63564;46.840;18.336;2023-05-07T05:04:45;9.90;;;5.10;;
75009;SDS011;63564;46.840;18.336;2023-05-07T05:07:46;10.07;;;5.30;;
75009;SDS011;63564;46.840;18.336;2023-05-07T05:10:46;10.70;;;5.13;;
75009;SDS011;63564;46.840;18.336;2023-05-07T05:13:48;9.90;;;5.00;;
75009;SDS011;63564;46.840;18.336;2023-05-07T05:16:49;8.87;;;4.73;;
75009;SDS011;63564;46.840;18.336;2023-05-07T05:19:49;10.37;;;4.83;;
75009;SDS011;63564;46.840;18.336;2023-05-07T05:22:50;9.60;;;4.93;;
75009;SDS011;63564;46.840;18.336;2023-05-07T05:25:55;8.27;;;4.40;;
75009;SDS011;63564;46.840;18.336;2023-05-07T05:28:56;9.75;;;4.43;;
75009;SDS011;63564;46.840;18.336;2023-05-07T05:31:56;8.87;;;3.97;;
75009;SDS011;63564;46.840;18.336;2023-05-07T05:34:57;7.83;;;4.17;;
75009;SDS011;63564;46.840;18.336;2023-05-07T05:37:57;9.43;;;3.87;;
75009;SDS011;63564;46.840;18.336;2023-05-07T05:40:58;8.70;;;4.37;;
75009;SDS011;63564;46.840;18.336;2023-05-07T05:43:58;8.73;;;4.40;;
75009;SDS011;63564;46.840;18.336;2023-05-07T05:46:59;9.63;;;4.70;;
75009;SDS011;63564;46.840;18.336;2023-05-07T05:49:59;9.57;;;4.30;;
75009;SDS011;63564;46.840;18.336;2023-05-07T05:53:00;9.45;;;4.30;;
75009;SDS011;63564;46.840;18.336;2023-05-07T05:56:00;7.55;;;3.60;;
75009;SDS011;63564;46.840;18.336;2023-05-07T05:59:00;7.90;;;4.17;;
75009;SDS011;63564;46.840;18.336;2023-05-07T06:02:01;8.40;;;4.37;;
75009;SDS011;63564;46.840;18.336;2023-05-07T06:05:01;8.47;;;4.40;;
75009;SDS011;63564;46.840;18.336;2023-05-07T06:08:02;8.83;;;4.47;;
75009;SDS011;63564;46.840;18.336;2023-05-07T06:11:02;7.95;;;3.92;;
75009;SDS011;63564;46.840;18.336;2023-05-07T06:14:03;8.70;;;4.23;;
75009;SDS011;63564;46.840;18.336;2023-05-07T06:17:03;8.80;;;4.60;;
75009;SDS011;63564;46.840;18.336;2023-05-07T06:20:04;7.43;;;3.77;;
75009;SDS011;63564;46.840;18.336;2023-05-07T06:23:05;9.77;;;4.47;;
75009;SDS011;63564;46.840;18.336;2023-05-07T06:26:06;8.33;;;4.30;;
75009;SDS011;63564;46.840;18.336;2023-05-07T06:29:06;8.77;;;4.20;;
75009;SDS011;63564;46.840;18.336;2023-05-07T06:32:10;9.20;;;4.43;;
75009;SDS011;63564;46.840;18.336;2023-05-07T06:35:11;8.80;;;4.15;;
75009;SDS011;63564;46.840;18.336;2023-05-07T06:38:12;7.30;;;3.90;;
75009;SDS011;63564;46.840;18.336;2023-05-07T06:41:12;7.83;;;4.13;;
75009;SDS011;63564;46.840;18.336;2023-05-07T06:44:13;8.67;;;4.27;;
75009;SDS011;63564;46.840;18.336;2023-05-07T06:47:13;7.88;;;4.20;;
75009;SDS011;63564;46.840;18.336;2023-05-07T06:50:13;7.45;;;4.00;;
75009;SDS011;63564;46.840;18.336;2023-05-07T06:53:16;9.17;;;4.47;;
75009;SDS011;63564;46.840;18.336;2023-05-07T06:56:16;8.15;;;4.03;;
75009;SDS011;63564;46.840;18.336;2023-05-07T06:59:17;8.07;;;4.23;;
75009;SDS011;63564;46.840;18.336;2023-05-07T07:02:17;7.37;;;4.07;;
75009;SDS011;63564;46.840;18.336;2023-05-07T07:05:18;8.60;;;4.50;;
75009;SDS011;63564;46.840;18.336;2023-05-07T07:08:18;8.77;;;4.70;;
75009;SDS011;63564;46.840;18.336;2023-05-07T07:11:21;9.75;;;4.70;;
75009;SDS011;63564;46.840;18.336;2023-05-07T07:14:21;9.10;;;4.40;;
75009;SDS011;63564;46.840;18.336;2023-05-07T07:17:21;9.67;;;4.73;;
75009;SDS011;63564;46.840;18.336;2023-05-07T07:20:22;6.95;;;3.67;;
75009;SDS011;63564;46.840;18.336;2023-05-07T07:23:23;9.10;;;4.20;;
75009;SDS011;63564;46.840;18.336;2023-05-07T07:26:23;8.87;;;4.40;;
75009;SDS011;63564;46.840;18.336;2023-05-07T07:29:23;8.77;;;4.40;;
75009;SDS011;63564;46.840;18.336;2023-05-07T07:32:26;9.10;;;4.77;;
75009;SDS011;63564;46.840;18.336;2023-05-07T07:35:27;9.52;;;5.05;;
75009;SDS011;63564;46.840;18.336;2023-05-07T07:38:27;7.83;;;3.97;;
75009;SDS011;63564;46.840;18.336;2023-05-07T07:41:28;8.53;;;4.30;;
75009;SDS011;63564;46.840;18.336;2023-05-07T07:44:28;8.70;;;4.60;;
75009;SDS011;63564;46.840;18.336;2023-05-07T07:47:28;8.70;;;4.20;;
75009;SDS011;63564;46.840;18.336;2023-05-07T07:50:29;7.97;;;3.78;;
75009;SDS011;63564;46.840;18.336;2023-05-07T07:53:29;9.57;;;3.93;;
75009;SDS011;63564;46.840;18.336;2023-05-07T07:56:31;7.10;;;3.60;;
75009;SDS011;63564;46.840;18.336;2023-05-07T07:59:33;8.07;;;3.85;;
75009;SDS011;63564;46.840;18.336;2023-05-07T08:02:33;7.60;;;4.43;;
75009;SDS011;63564;46.840;18.336;2023-05-07T08:05:34;8.70;;;4.27;;
75009;SDS011;63564;46.840;18.336;2023-05-07T08:08:35;7.43;;;3.58;;
75009;SDS011;63564;46.840;18.336;2023-05-07T08:11:35;6.97;;;3.63;;
75009;SDS011;63564;46.840;18.336;2023-05-07T08:14:36;8.03;;;4.03;;
75009;SDS011;63564;46.840;18.336;2023-05-07T08:17:37;6.97;;;3.80;;
75009;SDS011;63564;46.840;18.336;2023-05-07T08:20:37;7.57;;;3.73;;
75009;SDS011;63564;46.840;18.336;2023-05-07T08:23:39;7.43;;;3.63;;
75009;SDS011;63564;46.840;18.336;2023-05-07T08:26:39;7.30;;;4.10;;
75009;SDS011;63564;46.840;18.336;2023-05-07T08:29:40;7.43;;;3.70;;
75009;SDS011;63564;46.840;18.336;2023-05-07T08:32:40;8.17;;;4.50;;
75009;SDS011;63564;46.840;18.336;2023-05-07T08:35:41;6.70;;;3.77;;
75009;SDS011;63564;46.840;18.336;2023-05-07T08:38:41;8.17;;;3.90;;
75009;SDS011;63564;46.840;18.336;2023-05-07T08:41:44;7.15;;;3.63;;
75009;SDS011;63564;46.840;18.336;2023-05-07T08:44:46;7.18;;;3.65;;
75009;SDS011;63564;46.840;18.336;2023-05-07T08:47:49;6.37;;;3.17;;
75009;SDS011;63564;46.840;18.336;2023-05-07T08:50:52;6.32;;;3.20;;
75009;SDS011;63564;46.840;18.336;2023-05-07T08:53:53;6.87;;;3.40;;
75009;SDS011;63564;46.840;18.336;2023-05-07T08:56:53;8.13;;;3.90;;
75009;SDS011;63564;46.840;18.336;2023-05-07T08:59:54;7.00;;;3.27;;
75009;SDS011;63564;46.840;18.336;2023-05-07T09:02:55;7.63;;;3.70;;
75009;SDS011;63564;46.840;18.336;2023-05-07T09:05:56;6.53;;;3.05;;
75009;SDS011;63564;46.840;18.336;2023-05-07T09:08:56;7.20;;;3.80;;
75009;SDS011;63564;46.840;18.336;2023-05-07T09:11:58;6.22;;;3.20;;
75009;SDS011;63564;46.840;18.336;2023-05-07T09:14:59;5.37;;;2.70;;
75009;SDS011;63564;46.840;18.336;2023-05-07T09:18:00;6.47;;;3.10;;
75009;SDS011;63564;46.840;18.336;2023-05-07T09:21:03;5.23;;;2.60;;
75009;SDS011;63564;46.840;18.336;2023-05-07T09:24:04;6.43;;;3.13;;
75009;SDS011;63564;46.840;18.336;2023-05-07T09:27:05;6.23;;;3.13;;
75009;SDS011;63564;46.840;18.336;2023-05-07T09:30:06;7.10;;;3.50;;
75009;SDS011;63564;46.840;18.336;2023-05-07T09:33:07;7.20;;;3.83;;
75009;SDS011;63564;46.840;18.336;2023-05-07T09:36:08;5.80;;;3.10;;
75009;SDS011;63564;46.840;18.336;2023-05-07T09:39:09;7.15;;;3.22;;
75009;SDS011;63564;46.840;18.336;2023-05-07T09:42:10;8.13;;;3.93;;
75009;SDS011;63564;46.840;18.336;2023-05-07T09:45:26;7.40;;;3.72;;
75009;SDS011;63564;46.840;18.336;2023-05-07T09:48:27;6.13;;;3.47;;
75009;SDS011;63564;46.840;18.336;2023-05-07T09:51:43;5.60;;;2.90;;
75009;SDS011;63564;46.840;18.336;2023-05-07T09:54:48;5.70;;;2.65;;
75009;SDS011;63564;46.840;18.336;2023-05-07T09:57:53;5.32;;;2.85;;
75009;SDS011;63564;46.840;18.336;2023-05-07T10:00:54;6.85;;;2.92;;
75009;SDS011;63564;46.840;18.336;2023-05-07T10:03:55;5.35;;;2.60;;
75009;SDS011;63564;46.840;18.336;2023-05-07T10:06:57;4.73;;;2.10;;
75009;SDS011;63564;46.840;18.336;2023-05-07T10:09:58;4.90;;;2.00;;
75009;SDS011;63564;46.840;18.336;2023-05-07T10:13:00;3.88;;;2.00;;
75009;SDS011;63564;46.840;18.336;2023-05-07T10:16:04;4.60;;;2.17;;
75009;SDS011;63564;46.840;18.336;2023-05-07T10:19:06;4.40;;;2.20;;
75009;SDS011;63564;46.840;18.336;2023-05-07T10:22:09;5.03;;;2.20;;
75009;SDS011;63564;46.840;18.336;2023-05-07T10:25:14;5.07;;;2.50;;
75009;SDS011;63564;46.840;18.336;2023-05-07T10:28:18;4.50;;;2.30;;
75009;SDS011;63564;46.840;18.336;2023-05-07T10:31:37;3.90;;;2.10;;
75009;SDS011;63564;46.840;18.336;2023-05-07T10:35:02;4.33;;;2.10;;
75009;SDS011;63564;46.840;18.336;2023-05-07T10:38:04;3.95;;;2.10;;
75009;SDS011;63564;46.840;18.336;2023-05-07T10:41:05;4.13;;;2.10;;
75009;SDS011;63564;46.840;18.336;2023-05-07T10:44:05;4.77;;;2.60;;
75009;SDS011;63564;46.840;18.336;2023-05-07T11:02:23;5.15;;;2.28;;
75009;SDS011;63564;46.840;18.336;2023-05-07T11:06:12;4.23;;;2.07;;
75009;SDS011;63564;46.840;18.336;2023-05-07T11:09:13;4.10;;;2.40;;
75009;SDS011;63564;46.840;18.336;2023-05-07T11:12:14;3.63;;;1.90;;
75009;SDS011;63564;46.840;18.336;2023-05-07T11:15:14;5.30;;;2.00;;
75009;SDS011;63564;46.840;18.336;2023-05-07T11:18:52;3.60;;;1.80;;
75009;SDS011;63564;46.840;18.336;2023-05-07T11:21:54;3.30;;;1.90;;
75009;SDS011;63564;46.840;18.336;2023-05-07T11:24:55;3.10;;;1.80;;
75009;SDS011;63564;46.840;18.336;2023-05-07T11:27:55;2.85;;;1.90;;
75009;SDS011;63564;46.840;18.336;2023-05-07T11:30:57;4.05;;;1.70;;
75009;SDS011;63564;46.840;18.336;2023-05-07T11:33:58;3.53;;;2.10;;
75009;SDS011;63564;46.840;18.336;2023-05-07T11:36:59;3.63;;;1.80;;
75009;SDS011;63564;46.840;18.336;2023-05-07T11:40:07;3.35;;;1.73;;
75009;SDS011;63564;46.840;18.336;2023-05-07T11:43:10;3.63;;;1.70;;
75009;SDS011;63564;46.840;18.336;2023-05-07T11:46:11;4.35;;;2.00;;
75009;SDS011;63564;46.840;18.336;2023-05-07T11:49:14;3.83;;;1.92;;
75009;SDS011;63564;46.840;18.336;2023-05-07T11:52:15;25.20;;;8.40;;
75009;SDS011;63564;46.840;18.336;2023-05-07T11:55:17;11.55;;;4.38;;
75009;SDS011;63564;46.840;18.336;2023-05-07T11:58:22;4.18;;;1.90;;
75009;SDS011;63564;46.840;18.336;2023-05-07T12:01:24;3.92;;;1.77;;
75009;SDS011;63564;46.840;18.336;2023-05-07T12:04:24;5.90;;;2.30;;
75009;SDS011;63564;46.840;18.336;2023-05-07T12:07:25;4.00;;;2.20;;
75009;SDS011;63564;46.840;18.336;2023-05-07T12:10:25;3.60;;;2.00;;
75009;SDS011;63564;46.840;18.336;2023-05-07T12:13:26;4.00;;;2.17;;
75009;SDS011;63564;46.840;18.336;2023-05-07T12:16:26;4.43;;;2.27;;
75009;SDS011;63564;46.840;18.336;2023-05-07T12:19:28;3.75;;;1.88;;
75009;SDS011;63564;46.840;18.336;2023-05-07T12:22:29;4.18;;;2.03;;
75009;SDS011;63564;46.840;18.336;2023-05-07T12:25:30;4.80;;;2.30;;
75009;SDS011;63564;46.840;18.336;2023-05-07T12:28:35;4.13;;;2.10;;
75009;SDS011;63564;46.840;18.336;2023-05-07T12:31:39;4.57;;;2.40;;
75009;SDS011;63564;46.840;18.336;2023-05-07T12:34:41;4.63;;;2.60;;
75009;SDS011;63564;46.840;18.336;2023-05-07T12:37:41;4.70;;;2.60;;
75009;SDS011;63564;46.840;18.336;2023-05-07T12:40:45;4.53;;;2.60;;
75009;SDS011;63564;46.840;18.336;2023-05-07T12:43:51;4.80;;;2.75;;
75009;SDS011;63564;46.840;18.336;2023-05-07T12:46:57;5.45;;;2.70;;
75009;SDS011;63564;46.840;18.336;2023-05-07T12:49:59;5.53;;;2.80;;
75009;SDS011;63564;46.840;18.336;2023-05-07T12:52:59;5.15;;;2.78;;
75009;SDS011;63564;46.840;18.336;2023-05-07T12:56:00;4.97;;;2.67;;
75009;SDS011;63564;46.840;18.336;2023-05-07T12:59:00;4.90;;;2.60;;
75009;SDS011;63564;46.840;18.336;2023-05-07T13:02:01;4.03;;;2.40;;
75009;SDS011;63564;46.840;18.336;2023-05-07T13:05:01;5.43;;;2.90;;
75009;SDS011;63564;46.840;18.336;2023-05-07T13:08:02;5.67;;;2.87;;
75009;SDS011;63564;46.840;18.336;2023-05-07T13:11:03;5.60;;;2.70;;
75009;SDS011;63564;46.840;18.336;2023-05-07T13:14:04;4.97;;;2.63;;
75009;SDS011;63564;46.840;18.336;2023-05-07T13:17:04;5.35;;;2.30;;
75009;SDS011;63564;46.840;18.336;2023-05-07T13:20:05;4.37;;;2.63;;
75009;SDS011;63564;46.840;18.336;2023-05-07T13:23:06;5.33;;;2.53;;
75009;SDS011;63564;46.840;18.336;2023-05-07T13:26:06;4.38;;;2.40;;
75009;SDS011;63564;46.840;18.336;2023-05-07T13:29:07;4.50;;;2.60;;
75009;SDS011;63564;46.840;18.336;2023-05-07T13:32:07;4.40;;;2.40;;
75009;SDS011;63564;46.840;18.336;2023-05-07T13:35:07;5.10;;;2.80;;
75009;SDS011;63564;46.840;18.336;2023-05-07T13:38:08;5.30;;;2.90;;
75009;SDS011;63564;46.840;18.336;2023-05-07T13:41:08;5.38;;;2.90;;
75009;SDS011;63564;46.840;18.336;2023-05-07T13:44:09;4.80;;;2.67;;
75009;SDS011;63564;46.840;18.336;2023-05-07T13:47:10;4.97;;;2.93;;
75009;SDS011;63564;46.840;18.336;2023-05-07T13:50:11;5.00;;;2.83;;
75009;SDS011;63564;46.840;18.336;2023-05-07T13:53:13;5.17;;;2.70;;
75009;SDS011;63564;46.840;18.336;2023-05-07T13:56:15;4.40;;;2.67;;
75009;SDS011;63564;46.840;18.336;2023-05-07T13:59:16;4.10;;;2.50;;
75009;SDS011;63564;46.840;18.336;2023-05-07T14:02:16;4.87;;;2.80;;
75009;SDS011;63564;46.840;18.336;2023-05-07T14:05:16;4.85;;;2.40;;
75009;SDS011;63564;46.840;18.336;2023-05-07T14:08:17;4.33;;;2.63;;
75009;SDS011;63564;46.840;18.336;2023-05-07T14:11:19;4.55;;;2.90;;
75009;SDS011;63564;46.840;18.336;2023-05-07T14:14:21;4.38;;;2.70;;
75009;SDS011;63564;46.840;18.336;2023-05-07T14:17:21;5.20;;;2.90;;
75009;SDS011;63564;46.840;18.336;2023-05-07T14:20:25;4.45;;;2.90;;
75009;SDS011;63564;46.840;18.336;2023-05-07T14:23:25;4.90;;;3.13;;
75009;SDS011;63564;46.840;18.336;2023-05-07T14:26:26;4.90;;;2.90;;
75009;SDS011;63564;46.840;18.336;2023-05-07T14:29:27;5.10;;;3.10;;
75009;SDS011;63564;46.840;18.336;2023-05-07T14:32:28;5.47;;;2.60;;
75009;SDS011;63564;46.840;18.336;2023-05-07T14:35:28;4.50;;;2.70;;
75009;SDS011;63564;46.840;18.336;2023-05-07T14:38:28;4.53;;;2.50;;
75009;SDS011;63564;46.840;18.336;2023-05-07T14:41:30;4.53;;;2.40;;
75009;SDS011;63564;46.840;18.336;2023-05-07T14:44:31;5.20;;;2.47;;
75009;SDS011;63564;46.840;18.336;2023-05-07T14:47:32;4.00;;;2.20;;
75009;SDS011;63564;46.840;18.336;2023-05-07T14:50:33;5.50;;;2.20;;
75009;SDS011;63564;46.840;18.336;2023-05-07T14:53:33;5.27;;;2.30;;
75009;SDS011;63564;46.840;18.336;2023-05-07T14:56:34;3.90;;;2.20;;
75009;SDS011;63564;46.840;18.336;2023-05-07T14:59:35;4.65;;;2.53;;
75009;SDS011;63564;46.840;18.336;2023-05-07T15:02:37;4.90;;;2.50;;
75009;SDS011;63564;46.840;18.336;2023-05-07T15:05:37;5.00;;;2.70;;
75009;SDS011;63564;46.840;18.336;2023-05-07T15:08:38;4.87;;;2.70;;
75009;SDS011;63564;46.840;18.336;2023-05-07T15:11:38;4.83;;;2.90;;
75009;SDS011;63564;46.840;18.336;2023-05-07T15:14:39;4.80;;;2.50;;
75009;SDS011;63564;46.840;18.336;2023-05-07T15:17:39;4.65;;;2.75;;
75009;SDS011;63564;46.840;18.336;2023-05-07T15:20:40;6.10;;;3.07;;
75009;SDS011;63564;46.840;18.336;2023-05-07T15:23:41;5.10;;;2.70;;
75009;SDS011;63564;46.840;18.336;2023-05-07T15:26:41;5.10;;;2.63;;
75009;SDS011;63564;46.840;18.336;2023-05-07T15:29:42;5.80;;;2.90;;
75009;SDS011;63564;46.840;18.336;2023-05-07T15:32:42;7.00;;;3.10;;
75009;SDS011;63564;46.840;18.336;2023-05-07T15:35:43;6.00;;;3.30;;
75009;SDS011;63564;46.840;18.336;2023-05-07T15:38:44;6.50;;;3.37;;
75009;SDS011;63564;46.840;18.336;2023-05-07T15:41:44;5.80;;;3.30;;
75009;SDS011;63564;46.840;18.336;2023-05-07T15:44:45;5.18;;;3.00;;
75009;SDS011;63564;46.840;18.336;2023-05-07T15:47:46;6.13;;;3.20;;
75009;SDS011;63564;46.840;18.336;2023-05-07T15:50:46;4.83;;;2.80;;
75009;SDS011;63564;46.840;18.336;2023-05-07T15:53:47;6.13;;;2.93;;
75009;SDS011;63564;46.840;18.336;2023-05-07T15:56:48;6.07;;;3.28;;
75009;SDS011;63564;46.840;18.336;2023-05-07T15:59:48;6.40;;;3.20;;
75009;SDS011;63564;46.840;18.336;2023-05-07T16:02:49;5.65;;;3.13;;
75009;SDS011;63564;46.840;18.336;2023-05-07T16:05:50;5.70;;;3.30;;
75009;SDS011;63564;46.840;18.336;2023-05-07T16:08:51;7.15;;;3.40;;
75009;SDS011;63564;46.840;18.336;2023-05-07T16:11:51;5.53;;;2.97;;
75009;SDS011;63564;46.840;18.336;2023-05-07T16:14:51;5.97;;;3.07;;
75009;SDS011;63564;46.840;18.336;2023-05-07T16:17:52;6.40;;;3.27;;
75009;SDS011;63564;46.840;18.336;2023-05-07T16:20:56;5.90;;;3.47;;
75009;SDS011;63564;46.840;18.336;2023-05-07T16:23:59;6.95;;;3.40;;
75009;SDS011;63564;46.840;18.336;2023-05-07T16:26:59;7.07;;;3.37;;
75009;SDS011;63564;46.840;18.336;2023-05-07T16:30:00;6.60;;;3.60;;
75009;SDS011;63564;46.840;18.336;2023-05-07T16:33:00;5.67;;;2.90;;
75009;SDS011;63564;46.840;18.336;2023-05-07T16:36:01;6.55;;;3.42;;
75009;SDS011;63564;46.840;18.336;2023-05-07T16:39:02;7.23;;;3.33;;
75009;SDS011;63564;46.840;18.336;2023-05-07T16:42:02;6.07;;;3.33;;
75009;SDS011;63564;46.840;18.336;2023-05-07T16:45:03;6.23;;;3.20;;
75009;SDS011;63564;46.840;18.336;2023-05-07T16:48:04;6.63;;;3.20;;
75009;SDS011;63564;46.840;18.336;2023-05-07T16:51:07;6.20;;;3.30;;
75009;SDS011;63564;46.840;18.336;2023-05-07T16:54:08;7.53;;;3.57;;
75009;SDS011;63564;46.840;18.336;2023-05-07T16:57:08;7.30;;;3.50;;
75009;SDS011;63564;46.840;18.336;2023-05-07T17:00:09;7.07;;;3.80;;
75009;SDS011;63564;46.840;18.336;2023-05-07T17:03:10;7.22;;;3.95;;
75009;SDS011;63564;46.840;18.336;2023-05-07T17:06:11;7.03;;;3.80;;
75009;SDS011;63564;46.840;18.336;2023-05-07T17:09:14;7.53;;;3.75;;
75009;SDS011;63564;46.840;18.336;2023-05-07T17:12:14;7.30;;;3.77;;
75009;SDS011;63564;46.840;18.336;2023-05-07T17:15:15;8.33;;;3.57;;
75009;SDS011;63564;46.840;18.336;2023-05-07T17:18:15;7.57;;;3.58;;
75009;SDS011;63564;46.840;18.336;2023-05-07T17:21:16;7.13;;;3.60;;
75009;SDS011;63564;46.840;18.336;2023-05-07T17:24:16;8.73;;;3.70;;
75009;SDS011;63564;46.840;18.336;2023-05-07T17:27:16;7.40;;;3.90;;
75009;SDS011;63564;46.840;18.336;2023-05-07T17:30:17;8.07;;;4.20;;
75009;SDS011;63564;46.840;18.336;2023-05-07T17:33:17;7.20;;;3.70;;
75009;SDS011;63564;46.840;18.336;2023-05-07T17:36:18;8.00;;;3.80;;
75009;SDS011;63564;46.840;18.336;2023-05-07T17:39:18;7.70;;;4.20;;
75009;SDS011;63564;46.840;18.336;2023-05-07T17:42:19;8.57;;;4.18;;
75009;SDS011;63564;46.840;18.336;2023-05-07T17:45:19;8.03;;;4.27;;
75009;SDS011;63564;46.840;18.336;2023-05-07T17:48:20;8.10;;;4.80;;
75009;SDS011;63564;46.840;18.336;2023-05-07T17:51:20;9.68;;;5.00;;
75009;SDS011;63564;46.840;18.336;2023-05-07T17:54:21;8.00;;;4.40;;
75009;SDS011;63564;46.840;18.336;2023-05-07T17:57:23;10.77;;;4.50;;
75009;SDS011;63564;46.840;18.336;2023-05-07T18:00:23;8.68;;;4.65;;
75009;SDS011;63564;46.840;18.336;2023-05-07T18:03:23;7.93;;;4.73;;
75009;SDS011;63564;46.840;18.336;2023-05-07T18:06:24;9.43;;;4.93;;